臺北終端管制區 - 桃園北區雷達席

METAR RCTP 092230Z 17003KT 140V230 9999 FEW012 SCT150 25/23 Q1008 NOSIG RMK A2979=

站台狀態:Offline
最後更新:2021-05-10 06:30:01